sensor_id;sensor_type;location;lat;lon;timestamp;P1;durP1;ratioP1;P2;durP2;ratioP2
10096;SDS011;5087;42.662;23.466;2022-09-20T00:00:37;4.93;;;4.83;;
10096;SDS011;5087;42.662;23.466;2022-09-20T00:03:05;4.83;;;4.73;;
10096;SDS011;5087;42.662;23.466;2022-09-20T00:05:33;4.77;;;4.67;;
10096;SDS011;5087;42.662;23.466;2022-09-20T00:08:02;4.50;;;4.40;;
10096;SDS011;5087;42.662;23.466;2022-09-20T00:10:30;4.43;;;4.33;;
10096;SDS011;5087;42.662;23.466;2022-09-20T00:13:00;4.20;;;4.10;;
10096;SDS011;5087;42.662;23.466;2022-09-20T00:15:28;4.70;;;4.60;;
10096;SDS011;5087;42.662;23.466;2022-09-20T00:17:55;4.70;;;4.60;;
10096;SDS011;5087;42.662;23.466;2022-09-20T00:20:24;5.10;;;5.00;;
10096;SDS011;5087;42.662;23.466;2022-09-20T00:22:51;4.57;;;4.47;;
10096;SDS011;5087;42.662;23.466;2022-09-20T00:25:19;4.80;;;4.70;;
10096;SDS011;5087;42.662;23.466;2022-09-20T00:27:46;4.90;;;4.80;;
10096;SDS011;5087;42.662;23.466;2022-09-20T00:30:13;4.80;;;4.70;;
10096;SDS011;5087;42.662;23.466;2022-09-20T00:32:41;4.70;;;4.60;;
10096;SDS011;5087;42.662;23.466;2022-09-20T00:35:08;4.70;;;4.60;;
10096;SDS011;5087;42.662;23.466;2022-09-20T00:37:38;4.73;;;4.63;;
10096;SDS011;5087;42.662;23.466;2022-09-20T00:40:08;4.60;;;4.50;;
10096;SDS011;5087;42.662;23.466;2022-09-20T00:42:39;4.30;;;4.20;;
10096;SDS011;5087;42.662;23.466;2022-09-20T00:45:07;4.20;;;4.10;;
10096;SDS011;5087;42.662;23.466;2022-09-20T00:47:45;4.10;;;4.00;;
10096;SDS011;5087;42.662;23.466;2022-09-20T00:50:24;3.70;;;3.70;;
10096;SDS011;5087;42.662;23.466;2022-09-20T00:53:01;4.10;;;4.00;;
10096;SDS011;5087;42.662;23.466;2022-09-20T00:55:32;4.20;;;4.10;;
10096;SDS011;5087;42.662;23.466;2022-09-20T00:58:02;4.30;;;4.20;;
10096;SDS011;5087;42.662;23.466;2022-09-20T01:00:30;4.40;;;4.30;;
10096;SDS011;5087;42.662;23.466;2022-09-20T01:02:58;4.27;;;4.17;;
10096;SDS011;5087;42.662;23.466;2022-09-20T01:05:31;4.30;;;4.20;;
10096;SDS011;5087;42.662;23.466;2022-09-20T01:08:00;4.37;;;4.27;;
10096;SDS011;5087;42.662;23.466;2022-09-20T01:10:28;4.40;;;4.30;;
10096;SDS011;5087;42.662;23.466;2022-09-20T01:12:57;4.13;;;4.03;;
10096;SDS011;5087;42.662;23.466;2022-09-20T01:15:24;4.20;;;4.10;;
10096;SDS011;5087;42.662;23.466;2022-09-20T01:17:54;4.10;;;4.00;;
10096;SDS011;5087;42.662;23.466;2022-09-20T01:20:24;4.20;;;4.10;;
10096;SDS011;5087;42.662;23.466;2022-09-20T01:25:49;4.60;;;4.50;;
10096;SDS011;5087;42.662;23.466;2022-09-20T01:28:35;4.70;;;4.60;;
10096;SDS011;5087;42.662;23.466;2022-09-20T01:31:07;5.00;;;4.90;;
10096;SDS011;5087;42.662;23.466;2022-09-20T01:33:42;4.30;;;4.20;;
10096;SDS011;5087;42.662;23.466;2022-09-20T01:36:13;4.20;;;4.10;;
10096;SDS011;5087;42.662;23.466;2022-09-20T01:38:49;4.40;;;4.30;;
10096;SDS011;5087;42.662;23.466;2022-09-20T01:41:25;4.40;;;4.30;;
10096;SDS011;5087;42.662;23.466;2022-09-20T01:44:00;4.30;;;4.20;;
10096;SDS011;5087;42.662;23.466;2022-09-20T01:46:36;4.50;;;4.40;;
10096;SDS011;5087;42.662;23.466;2022-09-20T01:49:07;4.30;;;4.20;;
10096;SDS011;5087;42.662;23.466;2022-09-20T01:55:21;4.30;;;4.20;;
10096;SDS011;5087;42.662;23.466;2022-09-20T02:07:48;3.87;;;3.87;;
10096;SDS011;5087;42.662;23.466;2022-09-20T02:10:29;4.10;;;4.00;;
10096;SDS011;5087;42.662;23.466;2022-09-20T02:13:08;4.13;;;4.03;;
10096;SDS011;5087;42.662;23.466;2022-09-20T02:15:55;4.20;;;4.10;;
10096;SDS011;5087;42.662;23.466;2022-09-20T02:18:46;3.73;;;3.73;;
10096;SDS011;5087;42.662;23.466;2022-09-20T02:21:37;3.90;;;3.90;;
10096;SDS011;5087;42.662;23.466;2022-09-20T02:24:14;3.70;;;3.70;;
10096;SDS011;5087;42.662;23.466;2022-09-20T02:26:49;3.80;;;3.80;;
10096;SDS011;5087;42.662;23.466;2022-09-20T02:29:31;3.80;;;3.80;;
10096;SDS011;5087;42.662;23.466;2022-09-20T02:32:15;3.83;;;3.83;;
10096;SDS011;5087;42.662;23.466;2022-09-20T02:35:00;3.43;;;3.43;;
10096;SDS011;5087;42.662;23.466;2022-09-20T02:40:43;3.40;;;3.40;;
10096;SDS011;5087;42.662;23.466;2022-09-20T02:43:20;2.90;;;2.90;;
10096;SDS011;5087;42.662;23.466;2022-09-20T02:45:58;3.00;;;3.00;;
10096;SDS011;5087;42.662;23.466;2022-09-20T02:48:37;2.80;;;2.80;;
10096;SDS011;5087;42.662;23.466;2022-09-20T02:51:16;2.50;;;2.50;;
10096;SDS011;5087;42.662;23.466;2022-09-20T02:53:50;2.50;;;2.50;;
10096;SDS011;5087;42.662;23.466;2022-09-20T02:56:28;2.80;;;2.80;;
10096;SDS011;5087;42.662;23.466;2022-09-20T02:59:04;2.60;;;2.60;;
10096;SDS011;5087;42.662;23.466;2022-09-20T03:01:41;2.70;;;2.70;;
10096;SDS011;5087;42.662;23.466;2022-09-20T03:04:22;2.80;;;2.80;;
10096;SDS011;5087;42.662;23.466;2022-09-20T03:07:01;2.70;;;2.70;;
10096;SDS011;5087;42.662;23.466;2022-09-20T03:09:37;2.67;;;2.67;;
10096;SDS011;5087;42.662;23.466;2022-09-20T03:12:13;2.90;;;2.90;;
10096;SDS011;5087;42.662;23.466;2022-09-20T03:14:53;2.43;;;2.43;;
10096;SDS011;5087;42.662;23.466;2022-09-20T03:17:29;2.80;;;2.80;;
10096;SDS011;5087;42.662;23.466;2022-09-20T03:20:10;3.10;;;3.10;;
10096;SDS011;5087;42.662;23.466;2022-09-20T03:22:50;2.60;;;2.60;;
10096;SDS011;5087;42.662;23.466;2022-09-20T03:25:29;2.40;;;2.40;;
10096;SDS011;5087;42.662;23.466;2022-09-20T03:28:18;2.40;;;2.40;;
10096;SDS011;5087;42.662;23.466;2022-09-20T03:31:01;2.50;;;2.50;;
10096;SDS011;5087;42.662;23.466;2022-09-20T03:33:37;2.27;;;2.27;;
10096;SDS011;5087;42.662;23.466;2022-09-20T03:36:19;2.70;;;2.70;;
10096;SDS011;5087;42.662;23.466;2022-09-20T03:39:04;2.50;;;2.50;;
10096;SDS011;5087;42.662;23.466;2022-09-20T03:41:57;2.60;;;2.60;;
10096;SDS011;5087;42.662;23.466;2022-09-20T03:44:52;2.60;;;2.60;;
10096;SDS011;5087;42.662;23.466;2022-09-20T03:47:47;2.50;;;2.50;;
10096;SDS011;5087;42.662;23.466;2022-09-20T03:50:31;2.40;;;2.40;;
10096;SDS011;5087;42.662;23.466;2022-09-20T03:56:24;2.40;;;2.40;;
10096;SDS011;5087;42.662;23.466;2022-09-20T03:59:07;2.20;;;2.20;;
10096;SDS011;5087;42.662;23.466;2022-09-20T04:01:59;2.10;;;2.10;;
10096;SDS011;5087;42.662;23.466;2022-09-20T04:04:41;2.47;;;2.47;;
10096;SDS011;5087;42.662;23.466;2022-09-20T04:07:15;2.20;;;2.20;;
10096;SDS011;5087;42.662;23.466;2022-09-20T04:12:58;2.20;;;2.20;;
10096;SDS011;5087;42.662;23.466;2022-09-20T04:15:42;2.20;;;2.20;;
10096;SDS011;5087;42.662;23.466;2022-09-20T04:18:18;2.00;;;2.00;;
10096;SDS011;5087;42.662;23.466;2022-09-20T04:20:53;2.10;;;2.10;;
10096;SDS011;5087;42.662;23.466;2022-09-20T04:23:28;2.10;;;2.10;;
10096;SDS011;5087;42.662;23.466;2022-09-20T04:26:01;2.00;;;2.00;;
10096;SDS011;5087;42.662;23.466;2022-09-20T04:28:33;2.00;;;2.00;;
10096;SDS011;5087;42.662;23.466;2022-09-20T04:31:11;1.83;;;1.83;;
10096;SDS011;5087;42.662;23.466;2022-09-20T04:33:47;2.10;;;2.10;;
10096;SDS011;5087;42.662;23.466;2022-09-20T04:36:22;1.77;;;1.77;;
10096;SDS011;5087;42.662;23.466;2022-09-20T04:39:03;1.53;;;1.53;;
10096;SDS011;5087;42.662;23.466;2022-09-20T04:47:53;0.50;;;0.50;;
10096;SDS011;5087;42.662;23.466;2022-09-20T04:50:51;0.60;;;0.60;;
10096;SDS011;5087;42.662;23.466;2022-09-20T04:53:56;0.60;;;0.60;;
10096;SDS011;5087;42.662;23.466;2022-09-20T04:56:48;0.80;;;0.80;;
10096;SDS011;5087;42.662;23.466;2022-09-20T04:59:31;0.80;;;0.80;;
10096;SDS011;5087;42.662;23.466;2022-09-20T05:02:27;0.90;;;0.90;;
10096;SDS011;5087;42.662;23.466;2022-09-20T05:11:29;1.70;;;1.70;;
10096;SDS011;5087;42.662;23.466;2022-09-20T05:17:11;1.90;;;1.90;;
10096;SDS011;5087;42.662;23.466;2022-09-20T05:19:48;2.20;;;2.20;;
10096;SDS011;5087;42.662;23.466;2022-09-20T05:22:55;2.60;;;2.60;;
10096;SDS011;5087;42.662;23.466;2022-09-20T05:25:39;3.20;;;3.20;;
10096;SDS011;5087;42.662;23.466;2022-09-20T05:28:15;3.23;;;3.23;;
10096;SDS011;5087;42.662;23.466;2022-09-20T05:30:49;3.53;;;3.53;;
10096;SDS011;5087;42.662;23.466;2022-09-20T05:33:21;3.70;;;3.70;;
10096;SDS011;5087;42.662;23.466;2022-09-20T05:35:57;3.70;;;3.70;;
10096;SDS011;5087;42.662;23.466;2022-09-20T05:38:37;4.30;;;4.20;;
10096;SDS011;5087;42.662;23.466;2022-09-20T05:41:12;4.10;;;4.00;;
10096;SDS011;5087;42.662;23.466;2022-09-20T05:43:53;3.77;;;3.77;;
10096;SDS011;5087;42.662;23.466;2022-09-20T05:46:33;4.00;;;4.00;;
10096;SDS011;5087;42.662;23.466;2022-09-20T05:49:10;4.20;;;4.10;;
10096;SDS011;5087;42.662;23.466;2022-09-20T05:51:55;4.50;;;4.40;;
10096;SDS011;5087;42.662;23.466;2022-09-20T05:54:49;4.20;;;4.10;;
10096;SDS011;5087;42.662;23.466;2022-09-20T05:57:31;4.60;;;4.50;;
10096;SDS011;5087;42.662;23.466;2022-09-20T06:00:08;4.30;;;4.20;;
10096;SDS011;5087;42.662;23.466;2022-09-20T06:02:42;4.40;;;4.30;;
10096;SDS011;5087;42.662;23.466;2022-09-20T06:05:23;4.37;;;4.27;;
10096;SDS011;5087;42.662;23.466;2022-09-20T06:08:06;4.70;;;4.60;;
10096;SDS011;5087;42.662;23.466;2022-09-20T06:10:57;4.93;;;4.83;;
10096;SDS011;5087;42.662;23.466;2022-09-20T06:13:46;4.90;;;4.80;;
10096;SDS011;5087;42.662;23.466;2022-09-20T06:16:30;4.90;;;4.80;;
10096;SDS011;5087;42.662;23.466;2022-09-20T06:19:05;4.73;;;4.63;;
10096;SDS011;5087;42.662;23.466;2022-09-20T06:21:45;4.90;;;4.80;;
10096;SDS011;5087;42.662;23.466;2022-09-20T06:24:24;4.90;;;4.80;;
10096;SDS011;5087;42.662;23.466;2022-09-20T06:27:00;5.13;;;5.03;;
10096;SDS011;5087;42.662;23.466;2022-09-20T06:29:33;5.20;;;5.10;;
10096;SDS011;5087;42.662;23.466;2022-09-20T06:32:04;4.90;;;4.80;;
10096;SDS011;5087;42.662;23.466;2022-09-20T06:34:32;5.00;;;4.90;;
10096;SDS011;5087;42.662;23.466;2022-09-20T06:37:05;4.90;;;4.80;;
10096;SDS011;5087;42.662;23.466;2022-09-20T06:40:00;5.20;;;5.10;;
10096;SDS011;5087;42.662;23.466;2022-09-20T06:42:50;5.50;;;5.40;;
10096;SDS011;5087;42.662;23.466;2022-09-20T06:45:18;5.30;;;5.20;;
10096;SDS011;5087;42.662;23.466;2022-09-20T06:47:45;5.10;;;5.00;;
10096;SDS011;5087;42.662;23.466;2022-09-20T06:50:13;5.53;;;5.43;;
10096;SDS011;5087;42.662;23.466;2022-09-20T06:52:41;5.00;;;4.90;;
10096;SDS011;5087;42.662;23.466;2022-09-20T06:55:12;4.90;;;4.80;;
10096;SDS011;5087;42.662;23.466;2022-09-20T06:57:46;5.50;;;5.40;;
10096;SDS011;5087;42.662;23.466;2022-09-20T07:00:17;5.43;;;5.33;;
10096;SDS011;5087;42.662;23.466;2022-09-20T07:02:44;5.70;;;5.60;;
10096;SDS011;5087;42.662;23.466;2022-09-20T07:05:13;5.40;;;5.30;;
10096;SDS011;5087;42.662;23.466;2022-09-20T07:07:40;5.57;;;5.47;;
10096;SDS011;5087;42.662;23.466;2022-09-20T07:10:09;5.90;;;5.80;;
10096;SDS011;5087;42.662;23.466;2022-09-20T07:12:36;5.40;;;5.30;;
10096;SDS011;5087;42.662;23.466;2022-09-20T07:15:04;5.63;;;5.53;;
10096;SDS011;5087;42.662;23.466;2022-09-20T07:17:34;5.63;;;5.53;;
10096;SDS011;5087;42.662;23.466;2022-09-20T07:20:01;5.80;;;5.70;;
10096;SDS011;5087;42.662;23.466;2022-09-20T07:22:28;5.63;;;5.53;;
10096;SDS011;5087;42.662;23.466;2022-09-20T07:24:55;5.80;;;5.70;;
10096;SDS011;5087;42.662;23.466;2022-09-20T07:27:26;5.67;;;5.57;;
10096;SDS011;5087;42.662;23.466;2022-09-20T07:29:54;6.10;;;6.00;;
10096;SDS011;5087;42.662;23.466;2022-09-20T07:32:21;5.60;;;5.50;;
10096;SDS011;5087;42.662;23.466;2022-09-20T07:34:50;5.50;;;5.40;;
10096;SDS011;5087;42.662;23.466;2022-09-20T07:37:17;5.80;;;5.70;;
10096;SDS011;5087;42.662;23.466;2022-09-20T07:39:44;5.40;;;5.30;;
10096;SDS011;5087;42.662;23.466;2022-09-20T07:42:12;5.70;;;5.60;;
10096;SDS011;5087;42.662;23.466;2022-09-20T07:44:39;5.30;;;5.20;;
10096;SDS011;5087;42.662;23.466;2022-09-20T07:47:07;5.10;;;5.00;;
10096;SDS011;5087;42.662;23.466;2022-09-20T07:49:35;5.40;;;5.30;;
10096;SDS011;5087;42.662;23.466;2022-09-20T07:52:04;5.30;;;5.20;;
10096;SDS011;5087;42.662;23.466;2022-09-20T07:54:32;5.13;;;5.03;;
10096;SDS011;5087;42.662;23.466;2022-09-20T07:56:59;5.70;;;5.60;;
10096;SDS011;5087;42.662;23.466;2022-09-20T07:59:26;5.37;;;5.27;;
10096;SDS011;5087;42.662;23.466;2022-09-20T08:01:53;5.20;;;5.10;;
10096;SDS011;5087;42.662;23.466;2022-09-20T08:04:21;5.37;;;5.27;;
10096;SDS011;5087;42.662;23.466;2022-09-20T08:06:49;4.93;;;4.83;;
10096;SDS011;5087;42.662;23.466;2022-09-20T08:09:17;5.00;;;4.90;;
10096;SDS011;5087;42.662;23.466;2022-09-20T08:11:44;4.93;;;4.83;;
10096;SDS011;5087;42.662;23.466;2022-09-20T08:14:12;4.90;;;4.80;;
10096;SDS011;5087;42.662;23.466;2022-09-20T08:16:41;4.70;;;4.60;;
10096;SDS011;5087;42.662;23.466;2022-09-20T08:19:13;4.50;;;4.40;;
10096;SDS011;5087;42.662;23.466;2022-09-20T08:21:41;4.43;;;4.33;;
10096;SDS011;5087;42.662;23.466;2022-09-20T08:24:08;4.50;;;4.40;;
10096;SDS011;5087;42.662;23.466;2022-09-20T08:26:37;4.07;;;3.97;;
10096;SDS011;5087;42.662;23.466;2022-09-20T08:29:04;3.70;;;3.70;;
10096;SDS011;5087;42.662;23.466;2022-09-20T08:31:32;3.50;;;3.50;;
10096;SDS011;5087;42.662;23.466;2022-09-20T08:34:02;4.17;;;4.07;;
10096;SDS011;5087;42.662;23.466;2022-09-20T08:36:31;3.90;;;3.90;;
10096;SDS011;5087;42.662;23.466;2022-09-20T08:38:59;4.33;;;4.23;;
10096;SDS011;5087;42.662;23.466;2022-09-20T08:41:27;4.20;;;4.10;;
10096;SDS011;5087;42.662;23.466;2022-09-20T08:43:59;3.90;;;3.90;;
10096;SDS011;5087;42.662;23.466;2022-09-20T08:46:31;3.77;;;3.77;;
10096;SDS011;5087;42.662;23.466;2022-09-20T08:49:02;3.80;;;3.80;;
10096;SDS011;5087;42.662;23.466;2022-09-20T08:51:33;3.70;;;3.70;;
10096;SDS011;5087;42.662;23.466;2022-09-20T08:54:04;3.30;;;3.30;;
10096;SDS011;5087;42.662;23.466;2022-09-20T08:56:35;3.33;;;3.33;;
10096;SDS011;5087;42.662;23.466;2022-09-20T08:59:04;3.23;;;3.23;;
10096;SDS011;5087;42.662;23.466;2022-09-20T09:01:36;3.27;;;3.27;;
10096;SDS011;5087;42.662;23.466;2022-09-20T09:04:09;3.40;;;3.40;;
10096;SDS011;5087;42.662;23.466;2022-09-20T09:06:39;3.40;;;3.40;;
10096;SDS011;5087;42.662;23.466;2022-09-20T09:09:09;3.40;;;3.40;;
10096;SDS011;5087;42.662;23.466;2022-09-20T09:11:44;3.33;;;3.33;;
10096;SDS011;5087;42.662;23.466;2022-09-20T09:14:15;3.40;;;3.40;;
10096;SDS011;5087;42.662;23.466;2022-09-20T09:17:08;3.40;;;3.40;;
10096;SDS011;5087;42.662;23.466;2022-09-20T09:19:41;3.20;;;3.20;;
10096;SDS011;5087;42.662;23.466;2022-09-20T09:22:13;3.23;;;3.23;;
10096;SDS011;5087;42.662;23.466;2022-09-20T09:24:45;3.37;;;3.37;;
10096;SDS011;5087;42.662;23.466;2022-09-20T09:27:28;3.10;;;3.10;;
10096;SDS011;5087;42.662;23.466;2022-09-20T09:29:57;3.30;;;3.30;;
10096;SDS011;5087;42.662;23.466;2022-09-20T09:32:25;3.40;;;3.30;;
10096;SDS011;5087;42.662;23.466;2022-09-20T09:34:55;3.10;;;3.10;;
10096;SDS011;5087;42.662;23.466;2022-09-20T09:37:46;3.20;;;3.20;;
10096;SDS011;5087;42.662;23.466;2022-09-20T09:40:20;3.23;;;3.23;;
10096;SDS011;5087;42.662;23.466;2022-09-20T09:42:48;3.30;;;3.30;;
10096;SDS011;5087;42.662;23.466;2022-09-20T09:45:26;3.23;;;3.23;;
10096;SDS011;5087;42.662;23.466;2022-09-20T09:47:56;3.57;;;3.57;;
10096;SDS011;5087;42.662;23.466;2022-09-20T09:50:26;3.60;;;3.60;;
10096;SDS011;5087;42.662;23.466;2022-09-20T09:52:57;3.50;;;3.50;;
10096;SDS011;5087;42.662;23.466;2022-09-20T09:55:27;3.33;;;3.33;;
10096;SDS011;5087;42.662;23.466;2022-09-20T09:58:19;3.30;;;3.30;;
10096;SDS011;5087;42.662;23.466;2022-09-20T10:00:59;3.20;;;3.20;;
10096;SDS011;5087;42.662;23.466;2022-09-20T10:03:43;3.20;;;3.20;;
10096;SDS011;5087;42.662;23.466;2022-09-20T10:06:20;3.00;;;3.00;;
10096;SDS011;5087;42.662;23.466;2022-09-20T10:09:04;3.10;;;3.10;;
10096;SDS011;5087;42.662;23.466;2022-09-20T10:12:06;2.90;;;2.90;;
10096;SDS011;5087;42.662;23.466;2022-09-20T10:14:55;3.10;;;3.10;;
10096;SDS011;5087;42.662;23.466;2022-09-20T10:17:40;3.10;;;3.10;;
10096;SDS011;5087;42.662;23.466;2022-09-20T10:20:24;2.90;;;2.90;;
10096;SDS011;5087;42.662;23.466;2022-09-20T10:23:11;3.10;;;3.10;;
10096;SDS011;5087;42.662;23.466;2022-09-20T10:25:48;2.80;;;2.80;;
10096;SDS011;5087;42.662;23.466;2022-09-20T10:28:33;2.60;;;2.60;;
10096;SDS011;5087;42.662;23.466;2022-09-20T10:31:21;2.60;;;2.60;;
10096;SDS011;5087;42.662;23.466;2022-09-20T10:34:01;2.53;;;2.53;;
10096;SDS011;5087;42.662;23.466;2022-09-20T10:36:47;2.30;;;2.30;;
10096;SDS011;5087;42.662;23.466;2022-09-20T10:39:19;2.33;;;2.33;;
10096;SDS011;5087;42.662;23.466;2022-09-20T10:41:53;2.60;;;2.60;;
10096;SDS011;5087;42.662;23.466;2022-09-20T10:44:50;2.50;;;2.50;;
10096;SDS011;5087;42.662;23.466;2022-09-20T10:47:31;2.50;;;2.50;;
10096;SDS011;5087;42.662;23.466;2022-09-20T10:50:13;2.70;;;2.70;;
10096;SDS011;5087;42.662;23.466;2022-09-20T10:53:02;2.60;;;2.60;;
10096;SDS011;5087;42.662;23.466;2022-09-20T10:55:44;2.70;;;2.70;;
10096;SDS011;5087;42.662;23.466;2022-09-20T10:58:28;2.70;;;2.70;;
10096;SDS011;5087;42.662;23.466;2022-09-20T11:01:20;2.90;;;2.90;;
10096;SDS011;5087;42.662;23.466;2022-09-20T11:04:02;2.63;;;2.63;;
10096;SDS011;5087;42.662;23.466;2022-09-20T11:06:59;2.60;;;2.60;;
10096;SDS011;5087;42.662;23.466;2022-09-20T11:09:35;2.40;;;2.40;;
10096;SDS011;5087;42.662;23.466;2022-09-20T11:12:09;2.50;;;2.50;;
10096;SDS011;5087;42.662;23.466;2022-09-20T11:14:42;2.70;;;2.70;;
10096;SDS011;5087;42.662;23.466;2022-09-20T11:17:16;2.40;;;2.40;;
10096;SDS011;5087;42.662;23.466;2022-09-20T11:19:52;2.40;;;2.40;;
10096;SDS011;5087;42.662;23.466;2022-09-20T11:22:27;2.43;;;2.43;;
10096;SDS011;5087;42.662;23.466;2022-09-20T11:25:01;2.60;;;2.60;;
10096;SDS011;5087;42.662;23.466;2022-09-20T11:27:37;2.53;;;2.53;;
10096;SDS011;5087;42.662;23.466;2022-09-20T11:30:13;2.40;;;2.40;;
10096;SDS011;5087;42.662;23.466;2022-09-20T11:32:45;2.30;;;2.30;;
10096;SDS011;5087;42.662;23.466;2022-09-20T11:35:26;2.30;;;2.30;;
10096;SDS011;5087;42.662;23.466;2022-09-20T11:37:59;2.00;;;2.00;;
10096;SDS011;5087;42.662;23.466;2022-09-20T11:40:36;2.30;;;2.30;;
10096;SDS011;5087;42.662;23.466;2022-09-20T11:43:06;2.10;;;2.10;;
10096;SDS011;5087;42.662;23.466;2022-09-20T11:45:36;2.00;;;2.00;;
10096;SDS011;5087;42.662;23.466;2022-09-20T11:48:12;2.10;;;2.10;;
10096;SDS011;5087;42.662;23.466;2022-09-20T11:50:54;2.20;;;2.20;;
10096;SDS011;5087;42.662;23.466;2022-09-20T11:53:41;2.20;;;2.20;;
10096;SDS011;5087;42.662;23.466;2022-09-20T11:56:18;2.20;;;2.20;;
10096;SDS011;5087;42.662;23.466;2022-09-20T11:58:49;2.10;;;2.10;;
10096;SDS011;5087;42.662;23.466;2022-09-20T12:01:22;2.17;;;2.17;;
10096;SDS011;5087;42.662;23.466;2022-09-20T12:03:53;2.30;;;2.30;;
10096;SDS011;5087;42.662;23.466;2022-09-20T12:06:24;2.13;;;2.13;;
10096;SDS011;5087;42.662;23.466;2022-09-20T12:08:57;2.30;;;2.20;;
10096;SDS011;5087;42.662;23.466;2022-09-20T12:11:29;2.00;;;2.00;;
10096;SDS011;5087;42.662;23.466;2022-09-20T12:14:00;2.20;;;2.20;;
10096;SDS011;5087;42.662;23.466;2022-09-20T12:16:35;1.90;;;1.90;;
10096;SDS011;5087;42.662;23.466;2022-09-20T12:19:05;1.90;;;1.90;;
10096;SDS011;5087;42.662;23.466;2022-09-20T12:24:44;2.30;;;2.30;;
10096;SDS011;5087;42.662;23.466;2022-09-20T12:27:20;2.20;;;2.20;;
10096;SDS011;5087;42.662;23.466;2022-09-20T12:30:15;2.10;;;2.10;;
10096;SDS011;5087;42.662;23.466;2022-09-20T12:32:45;2.00;;;2.00;;
10096;SDS011;5087;42.662;23.466;2022-09-20T12:38:25;2.50;;;2.50;;
10096;SDS011;5087;42.662;23.466;2022-09-20T12:41:13;2.10;;;2.10;;
10096;SDS011;5087;42.662;23.466;2022-09-20T12:46:31;2.10;;;2.10;;
10096;SDS011;5087;42.662;23.466;2022-09-20T12:49:21;2.20;;;2.20;;
10096;SDS011;5087;42.662;23.466;2022-09-20T12:52:19;2.20;;;2.20;;
10096;SDS011;5087;42.662;23.466;2022-09-20T12:55:09;2.10;;;2.10;;
10096;SDS011;5087;42.662;23.466;2022-09-20T12:57:40;2.20;;;2.20;;
10096;SDS011;5087;42.662;23.466;2022-09-20T13:02:59;1.97;;;1.97;;
10096;SDS011;5087;42.662;23.466;2022-09-20T13:05:30;2.00;;;2.00;;
10096;SDS011;5087;42.662;23.466;2022-09-20T13:08:01;2.10;;;2.10;;
10096;SDS011;5087;42.662;23.466;2022-09-20T13:10:35;2.20;;;2.20;;
10096;SDS011;5087;42.662;23.466;2022-09-20T13:13:13;2.00;;;2.00;;
10096;SDS011;5087;42.662;23.466;2022-09-20T13:15:48;2.17;;;2.17;;
10096;SDS011;5087;42.662;23.466;2022-09-20T13:18:18;2.00;;;2.00;;
10096;SDS011;5087;42.662;23.466;2022-09-20T13:20:46;2.10;;;2.10;;
10096;SDS011;5087;42.662;23.466;2022-09-20T13:23:17;2.10;;;2.10;;
10096;SDS011;5087;42.662;23.466;2022-09-20T13:25:47;2.00;;;2.00;;
10096;SDS011;5087;42.662;23.466;2022-09-20T13:28:20;1.83;;;1.83;;
10096;SDS011;5087;42.662;23.466;2022-09-20T13:33:49;2.00;;;2.00;;
10096;SDS011;5087;42.662;23.466;2022-09-20T13:36:19;1.97;;;1.97;;
10096;SDS011;5087;42.662;23.466;2022-09-20T13:38:52;1.90;;;1.90;;
10096;SDS011;5087;42.662;23.466;2022-09-20T13:41:20;1.90;;;1.90;;
10096;SDS011;5087;42.662;23.466;2022-09-20T13:43:49;1.90;;;1.90;;
10096;SDS011;5087;42.662;23.466;2022-09-20T13:46:21;2.00;;;2.00;;
10096;SDS011;5087;42.662;23.466;2022-09-20T13:48:56;1.70;;;1.70;;
10096;SDS011;5087;42.662;23.466;2022-09-20T13:51:35;1.80;;;1.80;;
10096;SDS011;5087;42.662;23.466;2022-09-20T13:54:16;1.70;;;1.70;;
10096;SDS011;5087;42.662;23.466;2022-09-20T13:56:46;1.80;;;1.80;;
10096;SDS011;5087;42.662;23.466;2022-09-20T13:59:16;2.13;;;2.13;;
10096;SDS011;5087;42.662;23.466;2022-09-20T14:01:47;1.90;;;1.90;;
10096;SDS011;5087;42.662;23.466;2022-09-20T14:04:16;1.80;;;1.80;;
10096;SDS011;5087;42.662;23.466;2022-09-20T14:06:47;2.00;;;2.00;;
10096;SDS011;5087;42.662;23.466;2022-09-20T14:09:17;2.00;;;2.00;;
10096;SDS011;5087;42.662;23.466;2022-09-20T14:11:49;1.70;;;1.70;;
10096;SDS011;5087;42.662;23.466;2022-09-20T14:14:18;1.80;;;1.80;;
10096;SDS011;5087;42.662;23.466;2022-09-20T14:16:46;1.80;;;1.80;;
10096;SDS011;5087;42.662;23.466;2022-09-20T14:19:16;1.80;;;1.80;;
10096;SDS011;5087;42.662;23.466;2022-09-20T14:21:46;1.90;;;1.90;;
10096;SDS011;5087;42.662;23.466;2022-09-20T14:24:27;2.10;;;2.10;;
10096;SDS011;5087;42.662;23.466;2022-09-20T14:27:13;2.20;;;2.20;;
10096;SDS011;5087;42.662;23.466;2022-09-20T14:29:44;2.30;;;2.30;;
10096;SDS011;5087;42.662;23.466;2022-09-20T14:32:27;2.20;;;2.20;;
10096;SDS011;5087;42.662;23.466;2022-09-20T14:35:03;2.17;;;2.17;;
10096;SDS011;5087;42.662;23.466;2022-09-20T14:37:34;2.17;;;2.17;;
10096;SDS011;5087;42.662;23.466;2022-09-20T14:40:15;2.50;;;2.50;;
10096;SDS011;5087;42.662;23.466;2022-09-20T14:42:51;2.20;;;2.20;;
10096;SDS011;5087;42.662;23.466;2022-09-20T14:45:23;2.30;;;2.30;;
10096;SDS011;5087;42.662;23.466;2022-09-20T14:47:59;2.50;;;2.50;;
10096;SDS011;5087;42.662;23.466;2022-09-20T14:50:29;2.20;;;2.20;;
10096;SDS011;5087;42.662;23.466;2022-09-20T14:52:59;2.10;;;2.10;;
10096;SDS011;5087;42.662;23.466;2022-09-20T14:55:53;2.03;;;2.03;;
10096;SDS011;5087;42.662;23.466;2022-09-20T14:58:24;2.30;;;2.30;;
10096;SDS011;5087;42.662;23.466;2022-09-20T15:00:54;2.27;;;2.27;;
10096;SDS011;5087;42.662;23.466;2022-09-20T15:03:26;1.90;;;1.90;;
10096;SDS011;5087;42.662;23.466;2022-09-20T15:05:56;2.00;;;2.00;;
10096;SDS011;5087;42.662;23.466;2022-09-20T15:08:23;2.00;;;2.00;;
10096;SDS011;5087;42.662;23.466;2022-09-20T15:10:51;2.00;;;2.00;;
10096;SDS011;5087;42.662;23.466;2022-09-20T15:13:19;1.80;;;1.80;;
10096;SDS011;5087;42.662;23.466;2022-09-20T15:15:47;2.20;;;2.20;;
10096;SDS011;5087;42.662;23.466;2022-09-20T15:18:22;2.10;;;2.10;;
10096;SDS011;5087;42.662;23.466;2022-09-20T15:20:52;2.10;;;2.10;;
10096;SDS011;5087;42.662;23.466;2022-09-20T15:23:20;2.10;;;2.10;;
10096;SDS011;5087;42.662;23.466;2022-09-20T15:25:48;2.10;;;2.10;;
10096;SDS011;5087;42.662;23.466;2022-09-20T15:28:20;2.20;;;2.20;;
10096;SDS011;5087;42.662;23.466;2022-09-20T15:30:50;1.90;;;1.90;;
10096;SDS011;5087;42.662;23.466;2022-09-20T15:33:18;1.80;;;1.80;;
10096;SDS011;5087;42.662;23.466;2022-09-20T15:35:47;1.90;;;1.90;;
10096;SDS011;5087;42.662;23.466;2022-09-20T15:38:15;2.00;;;2.00;;
10096;SDS011;5087;42.662;23.466;2022-09-20T15:40:44;2.10;;;2.10;;
10096;SDS011;5087;42.662;23.466;2022-09-20T15:43:13;2.00;;;2.00;;
10096;SDS011;5087;42.662;23.466;2022-09-20T15:45:45;2.30;;;2.30;;
10096;SDS011;5087;42.662;23.466;2022-09-20T15:48:15;2.50;;;2.50;;
10096;SDS011;5087;42.662;23.466;2022-09-20T15:50:51;2.50;;;2.50;;
10096;SDS011;5087;42.662;23.466;2022-09-20T15:53:26;3.20;;;3.10;;
10096;SDS011;5087;42.662;23.466;2022-09-20T15:55:56;2.90;;;2.90;;
10096;SDS011;5087;42.662;23.466;2022-09-20T15:58:27;2.97;;;2.97;;
10096;SDS011;5087;42.662;23.466;2022-09-20T16:01:00;3.10;;;3.10;;
10096;SDS011;5087;42.662;23.466;2022-09-20T16:03:29;3.10;;;3.10;;
10096;SDS011;5087;42.662;23.466;2022-09-20T16:05:59;2.83;;;2.83;;
10096;SDS011;5087;42.662;23.466;2022-09-20T16:08:29;2.90;;;2.90;;
10096;SDS011;5087;42.662;23.466;2022-09-20T16:10:57;3.00;;;3.00;;
10096;SDS011;5087;42.662;23.466;2022-09-20T16:13:25;3.30;;;3.30;;
10096;SDS011;5087;42.662;23.466;2022-09-20T16:15:53;3.40;;;3.40;;
10096;SDS011;5087;42.662;23.466;2022-09-20T16:18:21;3.50;;;3.50;;
10096;SDS011;5087;42.662;23.466;2022-09-20T16:21:08;4.10;;;4.00;;
10096;SDS011;5087;42.662;23.466;2022-09-20T16:23:36;3.60;;;3.60;;
10096;SDS011;5087;42.662;23.466;2022-09-20T16:26:04;3.60;;;3.60;;
10096;SDS011;5087;42.662;23.466;2022-09-20T16:28:37;3.60;;;3.60;;
10096;SDS011;5087;42.662;23.466;2022-09-20T16:31:05;4.20;;;4.10;;